• Join FlightAware (Why Join?)
  • Login
  • US Flag 
06:31AM EDT


 

Airport Tracker/Info


-or-


 

Live Flight TrackerFlight Track Log ✈ AWE3268 ✈ 01-May-2013 ✈ KCMH - KPHL

Flight Track Log - Related Links

Times and Time Zones

All times are in EDT time to prevent confusion due to time zone crossing. See the AWE3268 flight status page for this flight to view local times or setup timezone preferences in your user account.

Time Position Orientation Groundspeed Altitude Reporting Facility
EDT Latitude Longitude Course Direction KTS MPH feet Rate Location/Type
01:45PM 39.9922 -82.8764 79° East 164 189 1,400  Level Indianapolis Center
01:46PM 39.9925 -82.8411 89° East 157 181 2,600 1,500 Climbing Indianapolis Center
01:46PM 39.9928 -82.8033 89° East 182 209 3,500 2,280 Climbing Indianapolis Center
01:47PM 39.9903 -82.6967 92° East 243 280 6,500 2,760 Climbing Indianapolis Center
01:48PM 40.0452 -82.4146 83° East  Level FlightAware Approximate
01:48PM 39.9875 -82.6000 92° East 262 302 9,300  Level Indianapolis Center
01:49PM 40.0608 -82.2969 79° East  Level FlightAware Approximate
01:49PM 39.9853 -82.4958 92° East 282 325 11,500  Level Indianapolis Center
01:50PM 40.0788 -82.1796 79° East  Level FlightAware Approximate
01:50PM 40.0022 -82.3847 79° East 310 357 13,500  Level Indianapolis Center
01:51PM 40.0192 -82.2672 79° East 325 374 15,700 1,980 Climbing Indianapolis Center
01:52PM 40.0375 -82.1478 79° East 333 383 17,700 1,620 Climbing Indianapolis Center
01:53PM 40.0564 -82.0225 79° East 346 398 19,100 1,320 Climbing Indianapolis Center
01:55PM 40.0753 -81.8928 79° East 358 412 20,500 1,440 Climbing Indianapolis Center
01:56PM 40.0967 -81.7447 79° East 380 437 22,100 1,560 Climbing Indianapolis Center
01:57PM 40.1167 -81.6061 79° East 385 443 23,800 1,500 Climbing Indianapolis Center
01:58PM 40.1356 -81.4664 80° East 388 447 25,300 1,320 Climbing Indianapolis Center
01:59PM 40.1628 -81.2947 78° East 389 448 26,600 1,200 Climbing Cleveland Center
02:00PM 40.1825 -81.1511 80° East 394 453 27,800 1,200 Climbing Cleveland Center
02:01PM 40.2039 -81.0017 79° East 405 466 29,000 600 Climbing Cleveland Center
02:02PM 40.2231 -80.8522 80° East 410 472 29,000  Level Cleveland Center
02:03PM 40.2442 -80.7028 79° East 410 472 29,000  Level Cleveland Center
02:04PM 40.2631 -80.5531 81° East 410 472 29,000  Level Cleveland Center
02:05PM 40.2692 -80.4008 87° East 410 472 29,000  Level Cleveland Center
02:06PM 40.2731 -80.2539 88° East 400 460 29,000  Level Cleveland Center
02:07PM 40.2789 -80.1042 87° East 405 466 29,000  Level Cleveland Center
02:08PM 40.2822 -79.9708 88° East 405 466 29,000  Level Cleveland Center
02:09PM 40.2897 -79.8211 86° East 405 466 29,000  Level Cleveland Center
02:10PM 40.2950 -79.6711 87° East 405 466 29,000  Level Cleveland Center
02:11PM 40.2978 -79.5269 89° East 405 466 29,000  Level Cleveland Center
02:12PM 40.3028 -79.3797 87° East 405 466 29,000  Level Cleveland Center
02:13PM 40.3050 -79.2164 89° East 405 466 29,000  Level Cleveland Center
02:14PM 40.3072 -79.0639 89° East 405 466 29,000  Level Cleveland Center
02:15PM 40.3114 -78.9114 88° East 410 472 29,000  Level Cleveland Center
02:16PM 40.3172 -78.7586 87° East 410 472 29,000  Level Cleveland Center
02:17PM 40.3169 -78.6033 90° East 415 478 29,000 -300 Level Cleveland Center
02:19PM 40.3133 -78.2328 91° East 425 489 28,100 -780 Descending New York Center
02:20PM 40.3144 -78.0806 89° East 425 489 26,300 -1,620 Descending New York Center
02:21PM 40.3111 -77.9331 92° East 420 483 25,000 -660 Descending New York Center
02:22PM 40.3086 -77.7667 91° East 415 478 25,000  Level New York Center
02:23PM 40.2919 -77.6206 98° East 415 478 25,000 -840 Level New York Center
02:24PM 40.2753 -77.4747 98° East 410 472 23,400 -1,680 Descending New York Center
02:25PM 40.2583 -77.3317 99° East 410 472 21,700 -1,620 Descending New York Center
02:26PM 40.2422 -77.2103 100° East 396 456 20,200 -1,620 Descending New York Center
02:27PM 40.2231 -77.0617 100° East 380 437 18,500 -1,560 Descending New York Center
02:28PM 40.2069 -76.9297 99° East 365 420 17,100 -1,320 Descending New York Center
02:29PM 40.1919 -76.8197 100° East 355 409 16,000 -1,620 Descending New York Center
02:30PM 40.1753 -76.6961 100° East 350 403 14,000 -1,500 Descending New York Center
02:31PM 40.1589 -76.5614 99° East 343 395 13,000 -540 Descending New York Center
02:32PM 40.1417 -76.4433 101° East 338 389 13,000  Level New York Center
02:33PM 40.1264 -76.3308 100° East 328 377 13,000  Level New York Center
02:34PM 40.1161 -76.2347 98° East 304 350 13,000 -360 Level New York Center
02:35PM 40.1092 -76.1150 94° East 298 343 12,300 -960 Descending New York Center
02:36PM 40.1014 -76.0111 96° East 298 343 11,100 -1,200 Descending New York Center
02:37PM 40.0933 -75.9075 96° East 293 337 9,900 -1,380 Descending New York Center
02:38PM 40.0850 -75.8119 96° East 281 323 8,400 -1,620 Descending New York Center
02:39PM 40.0803 -75.7247 94° East 275 316 6,700 -1,200 Descending New York Center
02:40PM 40.0742 -75.6211 94° East 265 305 6,000 -360 Descending New York Center
02:41PM 40.0331 -75.5586 131° Southeast 238 274 6,000  Level New York Center
02:42PM 39.9769 -75.5006 142° Southeast 238 274 6,000  Level New York Center
02:43PM 39.9408 -75.4631 141° Southeast 208 239 6,000 -300 Level New York Center
02:44PM 39.9019 -75.5008 217° Southwest 142 163 5,500 -780 Descending New York Center
02:45PM 39.8889 -75.5622 255° West 148 170 4,500 -1,260 Descending New York Center
02:46PM 39.8500 -75.5975 215° Southwest 165 190 3,100 -1,140 Descending New York Center
02:47PM 39.8333 -75.5833 147° Southeast 173 199 3,000 -120 Descending Philadelphia TRACON
02:48PM 39.8167 -75.5167 108° East 177 204 3,000 -60 Level Philadelphia TRACON
02:49PM 39.8167 -75.4667 90° East 173 199 2,900 -120 Descending Philadelphia TRACON